createdAt,value
2023-03-27T00:01:16.283Z,7.50
2023-03-27T00:03:43.348Z,7.90
2023-03-27T00:06:16.282Z,8.00
2023-03-27T00:08:48.567Z,7.70
2023-03-27T00:11:16.934Z,7.70
2023-03-27T00:13:50.355Z,7.50
2023-03-27T00:16:22.823Z,7.50
2023-03-27T00:18:49.665Z,7.60
2023-03-27T00:21:16.448Z,7.80
2023-03-27T00:23:43.274Z,8.20
2023-03-27T00:26:11.931Z,7.80
2023-03-27T00:28:39.232Z,7.70
2023-03-27T00:31:13.891Z,7.50
2023-03-27T00:33:41.266Z,7.60
2023-03-27T00:36:08.787Z,7.90
2023-03-27T00:38:35.590Z,7.80
2023-03-27T00:41:03.088Z,7.80
2023-03-27T00:43:35.177Z,7.70
2023-03-27T00:46:07.937Z,7.40
2023-03-27T00:48:37.602Z,7.20
2023-03-27T00:51:06.077Z,7.20
2023-03-27T00:53:33.646Z,7.20
2023-03-27T00:56:03.784Z,7.20
2023-03-27T00:58:37.206Z,7.40
2023-03-27T01:01:04.052Z,7.60
2023-03-27T01:03:32.633Z,7.60
2023-03-27T01:06:02.171Z,7.90
2023-03-27T01:08:31.958Z,7.70
2023-03-27T01:11:09.465Z,7.70
2023-03-27T01:14:05.102Z,7.60
2023-03-27T01:17:09.490Z,7.60
2023-03-27T01:19:57.148Z,7.70
2023-03-27T01:23:05.178Z,7.80
2023-03-27T01:26:09.525Z,7.80
2023-03-27T01:29:12.963Z,7.80
2023-03-27T01:32:17.133Z,7.40
2023-03-27T01:35:08.653Z,7.40
2023-03-27T01:38:03.891Z,7.20
2023-03-27T01:41:00.700Z,6.90
2023-03-27T01:43:36.826Z,6.90
2023-03-27T01:46:12.266Z,7.10
2023-03-27T01:49:00.031Z,7.30
2023-03-27T01:51:34.927Z,7.30
2023-03-27T01:54:12.274Z,7.10
2023-03-27T01:56:46.115Z,6.90
2023-03-27T01:59:18.627Z,7.20
2023-03-27T02:01:52.381Z,7.30
2023-03-27T02:04:24.871Z,7.40
2023-03-27T02:06:57.423Z,7.30
2023-03-27T02:09:34.277Z,7.50
2023-03-27T02:12:11.899Z,7.10
2023-03-27T02:15:23.407Z,6.90
2023-03-27T02:17:56.989Z,6.60
2023-03-27T02:20:24.217Z,6.50
2023-03-27T02:22:51.472Z,6.40
2023-03-27T02:25:23.169Z,6.30
2023-03-27T02:28:26.059Z,6.30
2023-03-27T02:31:31.724Z,6.70
2023-03-27T02:34:21.889Z,6.40
2023-03-27T02:36:55.486Z,6.30
2023-03-27T02:39:38.274Z,6.20
2023-03-27T02:42:19.307Z,6.20
2023-03-27T02:45:18.514Z,6.20
2023-03-27T02:48:04.621Z,6.20
2023-03-27T02:50:39.044Z,6.40
2023-03-27T02:53:07.247Z,6.60
2023-03-27T02:55:41.417Z,6.60
2023-03-27T02:58:19.024Z,6.80
2023-03-27T03:00:49.198Z,6.80
2023-03-27T03:03:30.396Z,6.80
2023-03-27T03:05:57.957Z,6.90
2023-03-27T03:08:30.315Z,6.80
2023-03-27T03:11:02.758Z,6.70
2023-03-27T03:13:29.519Z,6.60
2023-03-27T03:15:56.215Z,6.80
2023-03-27T03:18:23.175Z,6.90
2023-03-27T03:20:50.021Z,6.90
2023-03-27T03:23:16.892Z,6.60
2023-03-27T03:25:44.726Z,6.70
2023-03-27T03:28:13.047Z,6.60
2023-03-27T03:30:43.352Z,6.70
2023-03-27T03:33:10.127Z,7.10
2023-03-27T03:35:37.150Z,6.90
2023-03-27T03:38:03.898Z,7.00
2023-03-27T03:40:31.508Z,6.70
2023-03-27T03:42:58.587Z,6.50
2023-03-27T03:45:25.373Z,6.50
2023-03-27T03:47:52.095Z,6.80
2023-03-27T03:50:18.864Z,6.90
2023-03-27T03:52:47.100Z,7.00
2023-03-27T03:55:15.929Z,7.00
2023-03-27T03:57:47.531Z,7.20
2023-03-27T04:00:16.964Z,6.70
2023-03-27T04:02:44.128Z,6.60
2023-03-27T04:05:11.112Z,6.70
2023-03-27T04:07:40.058Z,6.60
2023-03-27T04:10:08.687Z,6.60
2023-03-27T04:12:35.649Z,6.50
2023-03-27T04:15:02.417Z,6.40
2023-03-27T04:17:29.260Z,6.30
2023-03-27T04:19:56.049Z,6.00
2023-03-27T04:22:23.338Z,5.90
2023-03-27T04:24:50.596Z,5.90
2023-03-27T04:27:18.018Z,6.00
2023-03-27T04:29:47.417Z,6.00
2023-03-27T04:32:19.396Z,6.00
2023-03-27T04:34:48.262Z,6.00
2023-03-27T04:37:15.840Z,6.00
2023-03-27T04:39:46.371Z,5.70
2023-03-27T04:42:16.462Z,5.70
2023-03-27T04:44:46.498Z,5.70
2023-03-27T04:47:13.434Z,5.80
2023-03-27T04:49:46.684Z,6.10
2023-03-27T04:52:16.649Z,6.10
2023-03-27T04:54:44.117Z,6.10
2023-03-27T04:57:11.324Z,6.10
2023-03-27T04:59:38.115Z,6.10
2023-03-27T05:02:06.402Z,6.20
2023-03-27T05:04:33.487Z,6.20
2023-03-27T05:07:00.694Z,6.00
2023-03-27T05:09:27.445Z,6.00
2023-03-27T05:11:54.194Z,6.10
2023-03-27T05:14:22.953Z,6.10
2023-03-27T05:16:50.518Z,6.10
2023-03-27T05:19:19.423Z,5.90
2023-03-27T05:21:47.039Z,5.70
2023-03-27T05:24:15.454Z,5.30
2023-03-27T05:26:43.280Z,5.10
2023-03-27T05:29:10.117Z,5.30
2023-03-27T05:31:37.413Z,5.40
2023-03-27T05:34:05.713Z,5.50
2023-03-27T05:36:32.517Z,5.50
2023-03-27T05:38:59.517Z,6.20
2023-03-27T05:41:26.510Z,5.60
2023-03-27T05:43:53.526Z,5.60
2023-03-27T05:46:21.851Z,5.60
2023-03-27T05:48:48.964Z,5.40
2023-03-27T05:51:16.488Z,5.40
2023-03-27T05:53:43.540Z,5.10
2023-03-27T05:56:10.527Z,5.10
2023-03-27T05:58:38.706Z,5.10
2023-03-27T06:01:05.954Z,5.20
2023-03-27T06:03:36.717Z,5.30
2023-03-27T06:06:11.176Z,5.60
2023-03-27T06:08:38.450Z,5.40
2023-03-27T06:11:12.510Z,5.30
2023-03-27T06:13:39.273Z,5.10
2023-03-27T06:16:07.018Z,5.20
2023-03-27T06:18:34.172Z,5.20
2023-03-27T06:21:01.734Z,5.20
2023-03-27T06:23:28.593Z,5.10
2023-03-27T06:25:55.645Z,5.10
2023-03-27T06:28:22.692Z,4.80
2023-03-27T06:30:50.363Z,4.80
2023-03-27T06:33:17.175Z,4.70
2023-03-27T06:35:53.187Z,4.80
2023-03-27T06:38:21.076Z,4.80
2023-03-27T06:40:47.915Z,4.20
2023-03-27T06:43:18.138Z,5.20
2023-03-27T06:45:47.333Z,5.20
2023-03-27T06:48:21.383Z,5.20
2023-03-27T06:50:50.973Z,5.20
2023-03-27T06:55:49.262Z,5.10
2023-03-27T06:58:18.887Z,5.30
2023-03-27T07:00:47.161Z,5.30
2023-03-27T07:03:15.130Z,5.50
2023-03-27T07:05:42.716Z,5.80
2023-03-27T07:08:22.466Z,6.00
2023-03-27T07:10:59.701Z,5.60
2023-03-27T07:13:34.877Z,5.80
2023-03-27T07:16:01.758Z,6.30
2023-03-27T07:18:28.645Z,6.00
2023-03-27T07:20:55.653Z,6.40
2023-03-27T07:23:22.648Z,6.20
2023-03-27T07:25:50.241Z,6.30
2023-03-27T07:28:18.499Z,6.50
2023-03-27T07:30:45.578Z,6.20
2023-03-27T07:33:12.826Z,6.50
2023-03-27T07:35:44.253Z,6.60
2023-03-27T07:38:11.334Z,6.70
2023-03-27T07:40:40.576Z,6.50
2023-03-27T07:43:07.730Z,6.50
2023-03-27T07:45:35.719Z,6.90
2023-03-27T07:48:16.082Z,6.70
2023-03-27T07:50:43.543Z,6.90
2023-03-27T07:53:10.386Z,6.80
2023-03-27T07:55:59.140Z,6.80
2023-03-27T07:58:26.454Z,6.80
2023-03-27T08:00:53.370Z,6.80
2023-03-27T08:03:22.131Z,6.60
2023-03-27T08:05:57.737Z,6.70
2023-03-27T08:08:25.873Z,6.60
2023-03-27T08:10:56.874Z,6.70
2023-03-27T08:13:24.181Z,6.90
2023-03-27T08:15:51.205Z,7.20
2023-03-27T08:18:18.046Z,7.20
2023-03-27T08:20:45.738Z,7.40
2023-03-27T08:23:12.680Z,8.30
2023-03-27T08:25:39.920Z,7.40
2023-03-27T08:28:07.182Z,6.90
2023-03-27T08:30:35.314Z,7.30
2023-03-27T08:33:02.390Z,7.60
2023-03-27T08:35:29.199Z,7.30
2023-03-27T08:37:56.233Z,7.60
2023-03-27T08:40:29.929Z,7.30
2023-03-27T08:43:07.004Z,7.30
2023-03-27T08:45:58.202Z,7.50
2023-03-27T08:48:42.107Z,7.80
2023-03-27T08:51:31.669Z,7.50
2023-03-27T08:54:23.298Z,7.10
2023-03-27T08:56:50.634Z,7.50
2023-03-27T08:59:24.629Z,8.00
2023-03-27T09:02:25.339Z,8.60
2023-03-27T09:05:04.924Z,8.20
2023-03-27T09:07:41.567Z,8.20
2023-03-27T09:10:31.422Z,8.20
2023-03-27T09:13:16.005Z,7.50
2023-03-27T09:15:51.957Z,7.60
2023-03-27T09:18:37.938Z,8.10
2023-03-27T09:21:45.375Z,7.90
2023-03-27T09:24:22.285Z,8.10
2023-03-27T09:27:04.585Z,7.90
2023-03-27T09:29:39.331Z,8.60
2023-03-27T09:32:14.560Z,8.90
2023-03-27T09:34:41.932Z,8.80
2023-03-27T09:37:14.767Z,8.70
2023-03-27T09:39:50.161Z,8.60
2023-03-27T09:42:24.012Z,8.30
2023-03-27T09:44:56.953Z,8.80
2023-03-27T09:47:33.089Z,9.20
2023-03-27T09:50:19.791Z,9.10
2023-03-27T09:52:46.966Z,9.30
2023-03-27T09:55:34.478Z,9.60
2023-03-27T09:58:14.235Z,8.90
2023-03-27T10:00:41.177Z,8.90
2023-03-27T10:03:16.627Z,8.70
2023-03-27T10:05:45.143Z,8.20
2023-03-27T10:08:37.648Z,8.80
2023-03-27T10:11:08.024Z,9.40
2023-03-27T10:13:35.349Z,9.40
2023-03-27T10:16:06.034Z,9.50
2023-03-27T10:18:41.805Z,9.50
2023-03-27T10:21:11.821Z,10.20
2023-03-27T10:23:50.056Z,10.60
2023-03-27T10:26:19.673Z,10.00
2023-03-27T10:28:52.110Z,10.10
2023-03-27T10:31:32.060Z,9.80
2023-03-27T10:34:02.548Z,10.10
2023-03-27T10:36:34.505Z,10.50
2023-03-27T10:39:07.465Z,10.20
2023-03-27T10:41:36.645Z,10.70
2023-03-27T10:44:12.242Z,10.70
2023-03-27T10:46:40.994Z,10.50
2023-03-27T10:49:10.865Z,10.50
2023-03-27T10:51:51.759Z,10.50
2023-03-27T10:54:34.611Z,10.40
2023-03-27T10:57:02.553Z,10.70
2023-03-27T10:59:42.323Z,11.20
2023-03-27T11:02:29.307Z,10.90
2023-03-27T11:05:02.367Z,11.50
2023-03-27T11:07:33.985Z,11.80
2023-03-27T11:10:24.967Z,12.50
2023-03-27T11:13:16.398Z,11.40
2023-03-27T11:16:07.549Z,11.10
2023-03-27T11:18:40.979Z,11.30
2023-03-27T11:21:36.012Z,11.70
2023-03-27T11:24:05.523Z,11.40
2023-03-27T11:27:01.985Z,11.70
2023-03-27T11:29:39.787Z,10.50
2023-03-27T11:32:20.329Z,10.10
2023-03-27T11:35:04.112Z,10.80
2023-03-27T11:37:54.558Z,10.80
2023-03-27T11:40:36.889Z,10.70
2023-03-27T11:43:04.259Z,10.20
2023-03-27T11:46:04.090Z,10.20
2023-03-27T11:48:43.992Z,10.30
2023-03-27T11:51:36.894Z,10.90
2023-03-27T11:54:20.366Z,10.50
2023-03-27T11:56:52.522Z,10.60
2023-03-27T11:59:55.384Z,11.10
2023-03-27T12:02:55.995Z,11.40
2023-03-27T12:06:02.093Z,11.30
2023-03-27T12:09:00.296Z,11.40
2023-03-27T12:11:36.689Z,11.60
2023-03-27T12:14:44.687Z,12.20
2023-03-27T12:17:16.624Z,12.40
2023-03-27T12:19:58.443Z,11.70
2023-03-27T12:22:43.835Z,11.80
2023-03-27T12:25:35.932Z,12.00
2023-03-27T12:28:22.117Z,12.30
2023-03-27T12:31:05.614Z,12.00
2023-03-27T12:33:39.135Z,12.80
2023-03-27T12:36:13.564Z,13.50
2023-03-27T12:38:42.488Z,14.00
2023-03-27T12:41:11.064Z,14.30
2023-03-27T12:43:41.129Z,13.90
2023-03-27T12:46:41.845Z,14.70
2023-03-27T12:49:10.777Z,15.30
2023-03-27T12:51:57.829Z,14.50
2023-03-27T12:54:38.530Z,14.30
2023-03-27T12:57:20.860Z,14.50
2023-03-27T12:59:59.852Z,13.30
2023-03-27T13:02:35.883Z,12.60
2023-03-27T13:05:20.368Z,12.80
2023-03-27T13:08:11.236Z,13.10
2023-03-27T13:10:59.275Z,12.70
2023-03-27T13:13:44.735Z,12.40
2023-03-27T13:16:37.642Z,11.60
2023-03-27T13:19:26.054Z,11.60
2023-03-27T13:22:27.844Z,11.20
2023-03-27T13:25:16.383Z,11.90
2023-03-27T13:27:48.907Z,12.00
2023-03-27T13:30:42.163Z,12.60
2023-03-27T13:33:13.481Z,13.30
2023-03-27T13:35:51.307Z,14.20
2023-03-27T13:38:45.261Z,13.50
2023-03-27T13:41:45.910Z,13.80
2023-03-27T13:44:23.937Z,13.20
2023-03-27T13:46:57.469Z,13.10
2023-03-27T13:49:33.224Z,13.50
2023-03-27T13:52:34.040Z,12.90
2023-03-27T13:55:19.517Z,14.50
2023-03-27T13:57:58.964Z,14.50
2023-03-27T14:00:52.950Z,14.90
2023-03-27T14:03:37.422Z,15.20
2023-03-27T14:06:15.972Z,13.80
2023-03-27T14:08:55.357Z,14.50
2023-03-27T14:11:46.617Z,15.30
2023-03-27T14:14:19.309Z,15.50
2023-03-27T14:17:24.273Z,15.00
2023-03-27T14:20:25.269Z,15.10
2023-03-27T14:23:06.593Z,14.60
2023-03-27T14:25:38.259Z,15.00
2023-03-27T14:28:10.383Z,14.80
2023-03-27T14:30:48.809Z,14.50
2023-03-27T14:33:20.187Z,14.50
2023-03-27T14:35:54.766Z,14.50
2023-03-27T14:38:25.431Z,13.50
2023-03-27T14:41:00.753Z,13.10
2023-03-27T14:43:29.101Z,12.90
2023-03-27T14:46:05.972Z,12.00
2023-03-27T14:48:41.295Z,12.30
2023-03-27T14:51:13.504Z,12.90
2023-03-27T14:53:44.119Z,13.20
2023-03-27T14:56:38.383Z,14.70
2023-03-27T14:59:12.444Z,15.30
2023-03-27T15:01:40.145Z,15.00
2023-03-27T15:04:09.996Z,15.00
2023-03-27T15:06:38.707Z,14.70
2023-03-27T15:09:14.549Z,14.50
2023-03-27T15:11:44.386Z,15.00
2023-03-27T15:14:18.513Z,16.90
2023-03-27T15:16:52.972Z,17.50
2023-03-27T15:19:20.997Z,17.30
2023-03-27T15:21:59.772Z,17.40
2023-03-27T15:24:40.691Z,16.70
2023-03-27T15:27:17.580Z,16.20
2023-03-27T15:29:49.488Z,16.20
2023-03-27T15:32:19.079Z,15.70
2023-03-27T15:34:51.204Z,13.90
2023-03-27T15:37:23.895Z,14.70
2023-03-27T15:40:01.635Z,16.00
2023-03-27T15:43:00.169Z,17.30
2023-03-27T15:45:42.234Z,17.40
2023-03-27T15:48:45.498Z,17.30
2023-03-27T15:51:18.237Z,17.50
2023-03-27T15:53:50.502Z,16.40
2023-03-27T15:56:22.152Z,15.70
2023-03-27T15:59:04.310Z,14.80
2023-03-27T16:01:40.252Z,14.20
2023-03-27T16:04:13.105Z,14.00
2023-03-27T16:06:42.234Z,13.60
2023-03-27T16:09:31.917Z,13.80
2023-03-27T16:11:59.658Z,13.70
2023-03-27T16:14:41.754Z,13.90
2023-03-27T16:17:10.893Z,14.10
2023-03-27T16:20:23.859Z,13.60
2023-03-27T16:22:54.017Z,14.20
2023-03-27T16:25:20.767Z,14.20
2023-03-27T16:27:54.902Z,14.70
2023-03-27T16:30:30.597Z,15.30
2023-03-27T16:32:57.479Z,15.20
2023-03-27T16:35:24.721Z,14.80
2023-03-27T16:37:51.637Z,14.50
2023-03-27T16:40:18.570Z,15.20
2023-03-27T16:42:45.442Z,15.80
2023-03-27T16:45:12.529Z,16.50
2023-03-27T16:47:41.392Z,17.00
2023-03-27T16:50:12.469Z,16.80
2023-03-27T16:52:39.426Z,17.30
2023-03-27T16:55:07.680Z,17.60
2023-03-27T16:57:35.300Z,17.80
2023-03-27T17:00:02.330Z,17.40
2023-03-27T17:02:30.748Z,16.60
2023-03-27T17:04:58.880Z,15.50
2023-03-27T17:07:27.399Z,16.30
2023-03-27T17:09:54.334Z,15.90
2023-03-27T17:12:21.081Z,16.60
2023-03-27T17:14:47.830Z,17.10
2023-03-27T17:17:14.609Z,16.00
2023-03-27T17:19:41.396Z,15.40
2023-03-27T17:22:09.020Z,15.50
2023-03-27T17:24:49.306Z,15.40
2023-03-27T17:27:22.764Z,15.60
2023-03-27T17:29:49.533Z,15.30
2023-03-27T17:32:16.362Z,14.80
2023-03-27T17:34:43.143Z,14.50
2023-03-27T17:37:09.937Z,14.00
2023-03-27T17:39:36.675Z,14.00
2023-03-27T17:42:03.710Z,14.00
2023-03-27T17:44:30.630Z,13.80
2023-03-27T17:46:57.543Z,13.60
2023-03-27T17:49:24.586Z,13.90
2023-03-27T17:51:52.254Z,13.90
2023-03-27T17:54:19.069Z,13.80
2023-03-27T17:56:46.548Z,13.60
2023-03-27T17:59:13.304Z,13.60
2023-03-27T18:01:40.202Z,13.40
2023-03-27T18:04:07.560Z,13.30
2023-03-27T18:06:34.590Z,13.10
2023-03-27T18:09:01.360Z,13.20
2023-03-27T18:11:29.553Z,13.20
2023-03-27T18:13:56.476Z,13.10
2023-03-27T18:16:23.516Z,13.00
2023-03-27T18:18:52.324Z,12.60
2023-03-27T18:21:19.126Z,12.00
2023-03-27T18:23:46.940Z,11.70
2023-03-27T18:26:14.614Z,11.10
2023-03-27T18:28:41.359Z,10.50
2023-03-27T18:31:10.614Z,9.80
2023-03-27T18:33:38.185Z,9.40
2023-03-27T18:36:10.666Z,9.40
2023-03-27T18:38:39.952Z,9.40
2023-03-27T18:41:06.916Z,9.40
2023-03-27T18:43:33.916Z,9.50
2023-03-27T18:46:04.283Z,9.80
2023-03-27T18:48:31.609Z,9.80
2023-03-27T18:51:01.012Z,9.80
2023-03-27T18:53:27.877Z,10.00
2023-03-27T18:55:55.893Z,9.80
2023-03-27T18:58:24.383Z,9.90
2023-03-27T19:00:51.270Z,9.60
2023-03-27T19:03:19.987Z,9.30
2023-03-27T19:05:47.699Z,8.60
2023-03-27T19:08:15.907Z,8.30
2023-03-27T19:10:43.221Z,8.30
2023-03-27T19:13:10.337Z,8.00
2023-03-27T19:15:37.182Z,7.80
2023-03-27T19:18:04.165Z,7.30
2023-03-27T19:20:31.068Z,7.10
2023-03-27T19:22:57.876Z,7.00
2023-03-27T19:25:24.648Z,7.10
2023-03-27T19:27:51.457Z,6.90
2023-03-27T19:30:18.431Z,6.70
2023-03-27T19:32:45.248Z,6.60
2023-03-27T19:35:12.316Z,6.70
2023-03-27T19:37:39.020Z,6.80
2023-03-27T19:40:06.433Z,6.90
2023-03-27T19:42:33.211Z,7.00
2023-03-27T19:44:59.947Z,7.00
2023-03-27T19:47:26.841Z,6.70
2023-03-27T19:49:54.469Z,6.70
2023-03-27T19:52:21.246Z,6.60
2023-03-27T19:54:47.996Z,6.50
2023-03-27T19:57:15.465Z,6.50
2023-03-27T19:59:42.242Z,6.30
2023-03-27T20:02:12.107Z,6.10
2023-03-27T20:04:39.153Z,6.40
2023-03-27T20:07:07.584Z,6.20
2023-03-27T20:09:34.908Z,6.20
2023-03-27T20:12:02.128Z,6.00
2023-03-27T20:14:29.189Z,5.90
2023-03-27T20:16:55.993Z,5.90
2023-03-27T20:19:26.988Z,5.90
2023-03-27T20:21:55.537Z,5.80
2023-03-27T20:24:22.316Z,5.80
2023-03-27T20:26:53.221Z,5.70
2023-03-27T20:29:22.968Z,5.70
2023-03-27T20:31:50.093Z,5.60
2023-03-27T20:34:19.242Z,5.40
2023-03-27T20:36:46.431Z,5.40
2023-03-27T20:39:14.290Z,5.50
2023-03-27T20:41:41.318Z,5.50
2023-03-27T20:44:18.486Z,5.50
2023-03-27T20:46:51.599Z,5.50
2023-03-27T20:49:39.783Z,5.50
2023-03-27T20:52:08.626Z,5.50
2023-03-27T20:54:35.442Z,5.40
2023-03-27T20:57:02.866Z,5.50
2023-03-27T20:59:31.050Z,5.60
2023-03-27T21:01:59.428Z,5.60
2023-03-27T21:04:28.139Z,5.70
2023-03-27T21:06:55.486Z,5.70
2023-03-27T21:09:24.096Z,5.50
2023-03-27T21:11:51.272Z,5.50
2023-03-27T21:14:18.046Z,5.60
2023-03-27T21:16:44.921Z,5.60
2023-03-27T21:19:11.980Z,5.70
2023-03-27T21:21:39.038Z,5.70
2023-03-27T21:24:06.412Z,5.80
2023-03-27T21:26:33.682Z,5.90
2023-03-27T21:29:00.747Z,6.00
2023-03-27T21:31:27.592Z,5.70
2023-03-27T21:33:54.342Z,5.60
2023-03-27T21:36:21.180Z,5.50
2023-03-27T21:38:48.076Z,5.40
2023-03-27T21:41:16.565Z,5.40
2023-03-27T21:43:43.520Z,5.70
2023-03-27T21:46:10.662Z,6.10
2023-03-27T21:48:40.402Z,6.30
2023-03-27T21:51:08.374Z,6.50
2023-03-27T21:53:35.786Z,6.40
2023-03-27T21:56:03.062Z,6.70
2023-03-27T21:58:30.001Z,6.60
2023-03-27T22:00:57.907Z,6.40
2023-03-27T22:03:26.480Z,6.30
2023-03-27T22:06:07.904Z,6.20
2023-03-27T22:08:50.279Z,6.30
2023-03-27T22:11:16.995Z,6.50
2023-03-27T22:13:43.780Z,6.70
2023-03-27T22:16:13.672Z,6.70
2023-03-27T22:18:41.274Z,7.00
2023-03-27T22:21:23.645Z,7.10
2023-03-27T22:23:52.188Z,7.20
2023-03-27T22:26:20.397Z,7.20
2023-03-27T22:28:49.339Z,7.30
2023-03-27T22:31:16.548Z,7.40
2023-03-27T22:33:43.484Z,7.50
2023-03-27T22:36:11.839Z,7.50
2023-03-27T22:38:39.434Z,7.60
2023-03-27T22:41:07.648Z,7.70
2023-03-27T22:43:34.589Z,7.40
2023-03-27T22:46:13.182Z,7.30
2023-03-27T22:48:40.768Z,7.20
2023-03-27T22:51:08.666Z,7.30
2023-03-27T22:53:35.780Z,7.30
2023-03-27T22:56:03.197Z,7.30
2023-03-27T22:58:31.468Z,7.30
2023-03-27T23:00:58.661Z,7.30
2023-03-27T23:03:26.775Z,7.30
2023-03-27T23:05:54.700Z,7.50
2023-03-27T23:08:24.101Z,7.40
2023-03-27T23:11:01.765Z,7.50
2023-03-27T23:13:29.990Z,7.10
2023-03-27T23:15:57.232Z,7.20
2023-03-27T23:18:25.384Z,7.40
2023-03-27T23:21:00.654Z,7.50
2023-03-27T23:23:28.836Z,7.40
2023-03-27T23:25:58.200Z,7.50
2023-03-27T23:28:25.571Z,7.40
2023-03-27T23:31:01.248Z,7.30
2023-03-27T23:33:29.639Z,7.50
2023-03-27T23:36:12.299Z,7.60
2023-03-27T23:38:42.008Z,7.50
2023-03-27T23:41:10.597Z,7.30
2023-03-27T23:43:37.985Z,7.40
2023-03-27T23:46:09.082Z,7.60
2023-03-27T23:48:37.446Z,7.50
2023-03-27T23:51:05.592Z,7.40
2023-03-27T23:53:33.144Z,7.40
2023-03-27T23:56:00.585Z,7.60
2023-03-27T23:58:28.879Z,7.30
